Decoded Metar for LFSN (NANCY ESSEY in FRANCE) (IATA:ENC) | Meteo·Mobile Aviation Weather
aviador You're here:

LFSN Decoded Metar

NANCY ESSEY in FRANCE
Report Time2020-02-23 09:30:00
UTC Time2020-02-23 09:48:40
Flight Rules mvfr MVFR
Wind220° at 13 Gusting to 24 kt
W.Decomp.*RWY 21: 12.8 kt HW 2.3 kt RCW
Visibility9999 m
Phenomena:N/A
Clouds:Overcast 020 Hf
Expected CloudBase > 1,600 ft AGL from Temp-Dew spread
Ceiling2,000 ft
Temp11°C (ISA -3)
Dew Point07°C (77% RH)
AAT5.6°C
QNH1023 hPa
Density Alt203 ft
Elevation712 ft
Report Wrong Elevation
Raw Report
LFSN 230930Z AUTO 22013G24KT 180V260 9999 OVC020 11/07 Q1023=

Extra information for LFSN:More info

Metar Taf Metar & Taf Last 4 Metars F.Rules Stats Wind Profile Meteogram Temp Stats Airport Information Weather charts Add Link Nearby VenuesMetar ALERT Operation Metar Decoded Social comments